createdAt,value
2022-08-23T00:01:35.972Z,20.86
2022-08-23T00:04:08.067Z,20.81
2022-08-23T00:06:36.076Z,20.72
2022-08-23T00:09:05.237Z,20.73
2022-08-23T00:11:40.069Z,20.66
2022-08-23T00:14:11.213Z,20.65
2022-08-23T00:16:39.632Z,20.60
2022-08-23T00:19:09.994Z,20.58
2022-08-23T00:21:38.733Z,20.55
2022-08-23T00:24:07.671Z,20.53
2022-08-23T00:27:00.283Z,20.50
2022-08-23T00:29:36.496Z,20.46
2022-08-23T00:32:05.638Z,20.42
2022-08-23T00:34:33.209Z,20.37
2022-08-23T00:37:01.768Z,20.29
2022-08-23T00:39:29.532Z,20.27
2022-08-23T00:42:26.634Z,20.24
2022-08-23T00:45:14.198Z,20.18
2022-08-23T00:47:43.010Z,20.13
2022-08-23T00:50:43.839Z,20.09
2022-08-23T00:53:18.207Z,20.02
2022-08-23T00:55:49.099Z,19.97
2022-08-23T00:58:19.931Z,19.86
2022-08-23T01:00:50.340Z,19.85
2022-08-23T01:03:20.612Z,19.80
2022-08-23T01:05:55.819Z,19.73
2022-08-23T01:08:26.579Z,19.69
2022-08-23T01:11:01.990Z,19.63
2022-08-23T01:13:57.695Z,19.60
2022-08-23T01:16:40.558Z,19.56
2022-08-23T01:19:16.506Z,19.50
2022-08-23T01:22:02.529Z,19.49
2022-08-23T01:24:42.549Z,19.37
2022-08-23T01:27:18.144Z,19.32
2022-08-23T01:29:47.488Z,19.26
2022-08-23T01:32:15.644Z,19.18
2022-08-23T01:34:51.751Z,19.12
2022-08-23T01:37:21.661Z,19.06
2022-08-23T01:39:50.570Z,19.00
2022-08-23T01:42:21.071Z,18.89
2022-08-23T01:44:48.597Z,18.89
2022-08-23T01:47:16.123Z,18.83
2022-08-23T01:49:43.820Z,18.76
2022-08-23T01:52:11.569Z,18.73
2022-08-23T01:54:41.198Z,18.71
2022-08-23T01:57:11.216Z,18.68
2022-08-23T01:59:39.243Z,18.65
2022-08-23T02:02:06.838Z,18.61
2022-08-23T02:04:34.637Z,18.60
2022-08-23T02:07:02.303Z,18.59
2022-08-23T02:09:30.376Z,18.59
2022-08-23T02:12:00.564Z,18.58
2022-08-23T02:14:29.527Z,18.57
2022-08-23T02:17:04.513Z,18.58
2022-08-23T02:19:37.040Z,18.60
2022-08-23T02:22:07.799Z,18.63
2022-08-23T02:24:39.252Z,18.64
2022-08-23T02:27:07.237Z,18.67
2022-08-23T02:29:39.900Z,18.67
2022-08-23T02:32:11.285Z,18.79
2022-08-23T02:34:40.365Z,19.26
2022-08-23T02:37:10.234Z,19.80
2022-08-23T02:39:38.774Z,20.33
2022-08-23T02:42:07.698Z,20.76
2022-08-23T02:44:38.538Z,21.24
2022-08-23T02:47:12.159Z,21.64
2022-08-23T02:49:43.608Z,22.01
2022-08-23T02:52:11.533Z,22.36
2022-08-23T02:54:39.793Z,22.72
2022-08-23T02:57:08.589Z,23.07
2022-08-23T02:59:36.405Z,23.31
2022-08-23T03:02:04.104Z,23.51
2022-08-23T03:04:38.076Z,23.96
2022-08-23T03:07:05.688Z,24.14
2022-08-23T03:09:34.339Z,24.40
2022-08-23T03:12:01.839Z,24.70
2022-08-23T03:14:31.160Z,24.91
2022-08-23T03:16:58.790Z,25.24
2022-08-23T03:19:27.088Z,25.57
2022-08-23T03:21:54.716Z,25.80
2022-08-23T03:24:22.892Z,26.03
2022-08-23T03:26:51.366Z,26.25
2022-08-23T03:29:20.000Z,26.45
2022-08-23T03:32:01.021Z,26.59
2022-08-23T03:34:31.681Z,26.69
2022-08-23T03:36:59.656Z,26.86
2022-08-23T03:39:27.994Z,27.14
2022-08-23T03:41:58.119Z,27.40
2022-08-23T03:44:28.259Z,27.58
2022-08-23T03:46:55.800Z,27.78
2022-08-23T03:49:24.479Z,27.93
2022-08-23T03:51:53.530Z,28.24
2022-08-23T03:54:22.797Z,28.34
2022-08-23T03:57:00.703Z,28.47
2022-08-23T03:59:32.941Z,28.86
2022-08-23T04:02:01.798Z,29.03
2022-08-23T04:04:30.795Z,29.15
2022-08-23T04:07:21.117Z,29.35
2022-08-23T04:09:55.121Z,29.48
2022-08-23T04:12:25.885Z,29.63
2022-08-23T04:14:54.230Z,29.86
2022-08-23T04:17:23.354Z,30.14
2022-08-23T04:19:52.498Z,30.41
2022-08-23T04:22:21.088Z,30.84
2022-08-23T04:24:49.418Z,31.15
2022-08-23T04:27:17.325Z,31.37
2022-08-23T04:29:46.491Z,31.71
2022-08-23T04:32:26.479Z,32.05
2022-08-23T04:34:59.127Z,32.24
2022-08-23T04:37:28.444Z,32.41
2022-08-23T04:40:15.251Z,32.65
2022-08-23T04:42:43.535Z,32.66
2022-08-23T04:45:12.687Z,32.86
2022-08-23T04:47:45.415Z,33.09
2022-08-23T04:50:14.133Z,33.51
2022-08-23T04:53:18.064Z,33.87
2022-08-23T04:55:57.124Z,34.07
2022-08-23T04:58:26.401Z,34.03
2022-08-23T05:00:54.617Z,34.09
2022-08-23T05:03:27.405Z,34.00
2022-08-23T05:05:58.997Z,34.01
2022-08-23T05:08:34.888Z,34.15
2022-08-23T05:11:06.773Z,34.11
2022-08-23T05:13:36.283Z,34.32
2022-08-23T05:16:06.106Z,34.65
2022-08-23T05:18:39.028Z,34.80
2022-08-23T05:21:06.892Z,35.02
2022-08-23T05:23:34.788Z,35.07
2022-08-23T05:26:07.327Z,35.41
2022-08-23T05:28:42.921Z,35.62
2022-08-23T05:31:17.625Z,36.05
2022-08-23T05:33:52.567Z,36.22
2022-08-23T05:36:33.102Z,36.16
2022-08-23T05:39:01.277Z,36.13
2022-08-23T05:41:38.057Z,36.29
2022-08-23T05:44:10.641Z,36.45
2022-08-23T05:46:43.511Z,36.82
2022-08-23T05:49:19.522Z,37.08
2022-08-23T05:51:51.541Z,36.83
2022-08-23T05:54:20.978Z,36.66
2022-08-23T05:57:02.612Z,36.70
2022-08-23T05:59:33.659Z,36.82
2022-08-23T06:02:02.203Z,37.10
2022-08-23T06:04:30.520Z,37.33
2022-08-23T06:06:59.170Z,37.37
2022-08-23T06:09:27.343Z,37.26
2022-08-23T06:11:54.976Z,37.02
2022-08-23T06:14:22.761Z,37.22
2022-08-23T06:16:55.566Z,37.54
2022-08-23T06:19:26.232Z,37.85
2022-08-23T06:22:13.418Z,37.89
2022-08-23T06:24:43.171Z,37.97
2022-08-23T06:27:16.520Z,38.25
2022-08-23T06:29:44.782Z,38.33
2022-08-23T06:32:35.533Z,38.67
2022-08-23T06:35:38.109Z,38.93
2022-08-23T06:38:23.430Z,38.88
2022-08-23T06:41:12.567Z,38.90
2022-08-23T06:43:51.584Z,38.98
2022-08-23T06:46:24.709Z,39.32
2022-08-23T06:48:58.200Z,39.44
2022-08-23T06:51:32.197Z,39.21
2022-08-23T06:54:36.706Z,39.43
2022-08-23T06:57:32.687Z,39.81
2022-08-23T07:00:26.348Z,39.58
2022-08-23T07:03:12.551Z,38.80
2022-08-23T07:05:58.463Z,38.53
2022-08-23T07:08:28.783Z,38.46
2022-08-23T07:10:57.599Z,38.39
2022-08-23T07:13:26.465Z,38.39
2022-08-23T07:16:00.308Z,38.39
2022-08-23T07:18:28.400Z,38.32
2022-08-23T07:21:00.444Z,38.21
2022-08-23T07:23:28.880Z,38.43
2022-08-23T07:25:58.365Z,38.77
2022-08-23T07:28:30.323Z,38.67
2022-08-23T07:31:11.412Z,38.13
2022-08-23T07:33:45.528Z,38.12
2022-08-23T07:36:24.138Z,38.17
2022-08-23T07:38:53.643Z,38.39
2022-08-23T07:41:25.436Z,38.52
2022-08-23T07:43:52.989Z,38.56
2022-08-23T07:46:20.751Z,38.24
2022-08-23T07:48:54.264Z,38.29
2022-08-23T07:51:32.076Z,38.03
2022-08-23T07:54:06.932Z,37.94
2022-08-23T07:56:38.697Z,37.85
2022-08-23T07:59:10.277Z,37.66
2022-08-23T08:01:43.761Z,37.20
2022-08-23T08:04:12.688Z,37.10
2022-08-23T08:06:59.840Z,37.22
2022-08-23T08:09:36.980Z,37.57
2022-08-23T08:12:05.249Z,37.79
2022-08-23T08:14:33.043Z,37.68
2022-08-23T08:17:03.955Z,37.51
2022-08-23T08:19:51.675Z,37.51
2022-08-23T08:22:39.556Z,37.52
2022-08-23T08:25:25.402Z,37.26
2022-08-23T08:27:54.369Z,37.28
2022-08-23T08:30:22.051Z,37.38
2022-08-23T08:32:50.370Z,37.19
2022-08-23T08:35:19.309Z,37.44
2022-08-23T08:37:47.481Z,37.38
2022-08-23T08:40:25.163Z,37.23
2022-08-23T08:43:18.286Z,36.88
2022-08-23T08:46:07.473Z,36.58
2022-08-23T08:48:50.097Z,36.54
2022-08-23T08:51:48.127Z,36.86
2022-08-23T08:54:22.743Z,37.02
2022-08-23T08:57:01.529Z,37.32
2022-08-23T08:59:41.556Z,37.59
2022-08-23T09:02:31.782Z,37.80
2022-08-23T09:05:07.359Z,37.69
2022-08-23T09:08:20.415Z,37.79
2022-08-23T09:10:54.412Z,37.85
2022-08-23T09:14:03.557Z,37.77
2022-08-23T09:16:50.996Z,37.83
2022-08-23T09:19:21.295Z,37.79
2022-08-23T09:21:58.465Z,37.98
2022-08-23T09:24:30.582Z,37.90
2022-08-23T09:27:10.715Z,37.46
2022-08-23T09:29:51.395Z,37.23
2022-08-23T09:32:36.035Z,37.24
2022-08-23T09:35:26.609Z,37.26
2022-08-23T09:38:22.107Z,37.28
2022-08-23T09:40:57.220Z,37.13
2022-08-23T09:43:28.102Z,37.18
2022-08-23T09:46:01.625Z,36.94
2022-08-23T09:48:35.737Z,36.88
2022-08-23T09:51:25.956Z,36.91
2022-08-23T09:54:22.080Z,36.75
2022-08-23T09:56:58.082Z,36.21
2022-08-23T09:59:28.784Z,35.94
2022-08-23T10:02:03.388Z,35.78
2022-08-23T10:04:37.535Z,35.74
2022-08-23T10:07:25.163Z,35.50
2022-08-23T10:10:13.007Z,35.22
2022-08-23T10:12:41.993Z,34.96
2022-08-23T10:15:10.908Z,34.76
2022-08-23T10:17:56.788Z,34.75
2022-08-23T10:20:56.353Z,34.82
2022-08-23T10:23:41.963Z,34.79
2022-08-23T10:26:27.413Z,34.55
2022-08-23T10:29:31.621Z,34.45
2022-08-23T10:32:26.142Z,34.56
2022-08-23T10:35:03.007Z,34.45
2022-08-23T10:38:08.310Z,34.29
2022-08-23T10:40:46.401Z,34.19
2022-08-23T10:43:36.603Z,33.95
2022-08-23T10:46:08.024Z,33.82
2022-08-23T10:48:49.111Z,33.54
2022-08-23T10:51:31.768Z,33.55
2022-08-23T10:54:13.662Z,33.46
2022-08-23T10:56:51.012Z,33.46
2022-08-23T10:59:26.517Z,33.48
2022-08-23T11:02:31.790Z,33.57
2022-08-23T11:05:27.970Z,33.46
2022-08-23T11:08:12.275Z,33.38
2022-08-23T11:10:55.799Z,33.32
2022-08-23T11:13:32.546Z,33.31
2022-08-23T11:16:08.302Z,33.31
2022-08-23T11:18:50.544Z,33.40
2022-08-23T11:21:28.752Z,33.41
2022-08-23T11:23:59.663Z,33.35
2022-08-23T11:26:36.604Z,33.29
2022-08-23T11:29:07.361Z,33.13
2022-08-23T11:31:58.806Z,33.01
2022-08-23T11:34:43.631Z,33.08
2022-08-23T11:37:20.686Z,33.15
2022-08-23T11:40:03.215Z,33.05
2022-08-23T11:42:38.922Z,33.15
2022-08-23T11:45:33.624Z,33.15
2022-08-23T11:48:25.443Z,33.06
2022-08-23T11:50:57.765Z,33.02
2022-08-23T11:53:41.944Z,32.95
2022-08-23T11:56:28.039Z,32.77
2022-08-23T11:59:09.082Z,32.80
2022-08-23T12:01:39.655Z,32.77
2022-08-23T12:04:12.144Z,32.67
2022-08-23T12:06:55.870Z,32.68
2022-08-23T12:09:23.375Z,32.66
2022-08-23T12:11:56.820Z,32.66
2022-08-23T12:14:51.856Z,32.65
2022-08-23T12:17:20.640Z,32.70
2022-08-23T12:20:11.317Z,32.75
2022-08-23T12:23:06.880Z,32.75
2022-08-23T12:25:35.523Z,32.72
2022-08-23T12:28:20.328Z,32.65
2022-08-23T12:31:18.829Z,32.52
2022-08-23T12:34:07.226Z,32.52
2022-08-23T12:37:09.541Z,32.58
2022-08-23T12:39:50.850Z,32.65
2022-08-23T12:42:26.129Z,32.56
2022-08-23T12:45:14.590Z,32.40
2022-08-23T12:47:43.979Z,32.35
2022-08-23T12:50:15.111Z,32.38
2022-08-23T12:52:42.758Z,32.40
2022-08-23T12:55:19.476Z,32.27
2022-08-23T12:57:58.349Z,32.22
2022-08-23T13:00:34.835Z,32.25
2022-08-23T13:03:24.373Z,32.29
2022-08-23T13:05:57.425Z,32.30
2022-08-23T13:08:39.127Z,32.21
2022-08-23T13:11:11.219Z,32.10
2022-08-23T13:13:42.262Z,32.06
2022-08-23T13:16:32.834Z,32.03
2022-08-23T13:19:22.638Z,32.00
2022-08-23T13:22:15.228Z,32.03
2022-08-23T13:24:46.909Z,32.05
2022-08-23T13:27:24.739Z,32.07
2022-08-23T13:30:22.944Z,32.06
2022-08-23T13:33:11.970Z,32.01
2022-08-23T13:35:43.482Z,31.98
2022-08-23T13:38:21.273Z,31.97
2022-08-23T13:40:54.499Z,31.93
2022-08-23T13:43:30.202Z,31.91
2022-08-23T13:46:01.588Z,31.87
2022-08-23T13:48:34.901Z,31.76
2022-08-23T13:51:30.352Z,31.79
2022-08-23T13:54:01.486Z,31.80
2022-08-23T13:56:30.848Z,31.78
2022-08-23T13:59:08.089Z,31.75
2022-08-23T14:01:36.301Z,31.71
2022-08-23T14:04:04.244Z,31.69
2022-08-23T14:06:31.897Z,31.62
2022-08-23T14:08:59.415Z,31.59
2022-08-23T14:11:27.054Z,31.55
2022-08-23T14:13:54.567Z,31.55
2022-08-23T14:16:36.608Z,31.51
2022-08-23T14:19:54.131Z,31.49
2022-08-23T14:21:57.102Z,31.43
2022-08-23T14:24:26.964Z,31.41
2022-08-23T14:26:56.054Z,31.40
2022-08-23T14:29:25.588Z,31.36
2022-08-23T14:31:53.203Z,31.28
2022-08-23T14:34:21.672Z,31.30
2022-08-23T14:39:39.386Z,31.23
2022-08-23T14:42:07.804Z,31.18
2022-08-23T14:44:36.249Z,31.14
2022-08-23T14:47:06.149Z,31.11
2022-08-23T14:49:34.186Z,31.06
2022-08-23T14:52:02.201Z,31.01
2022-08-23T14:54:29.922Z,30.98
2022-08-23T14:56:57.549Z,30.90
2022-08-23T14:59:25.223Z,30.89
2022-08-23T15:01:54.440Z,30.85
2022-08-23T15:04:25.885Z,30.78
2022-08-23T15:07:19.699Z,30.73
2022-08-23T15:09:49.626Z,30.70
2022-08-23T15:15:12.948Z,30.58
2022-08-23T15:17:55.932Z,30.52
2022-08-23T15:20:27.286Z,30.41
2022-08-23T15:23:03.022Z,30.34
2022-08-23T15:25:32.093Z,30.25
2022-08-23T15:28:03.804Z,30.17
2022-08-23T15:30:34.080Z,30.10
2022-08-23T15:33:01.871Z,30.04
2022-08-23T15:35:31.435Z,29.93
2022-08-23T15:37:59.363Z,29.90
2022-08-23T15:40:27.006Z,29.82
2022-08-23T15:42:54.677Z,29.76
2022-08-23T15:45:22.249Z,29.69
2022-08-23T15:47:53.139Z,29.60
2022-08-23T15:50:24.111Z,29.50
2022-08-23T15:52:52.462Z,29.41
2022-08-23T15:55:21.098Z,29.31
2022-08-23T15:57:51.941Z,29.23
2022-08-23T16:00:22.333Z,29.14
2022-08-23T16:03:19.198Z,29.07
2022-08-23T16:05:39.855Z,28.98
2022-08-23T16:08:08.924Z,28.83
2022-08-23T16:10:36.499Z,28.82
2022-08-23T16:13:04.100Z,28.76
2022-08-23T16:15:31.991Z,28.69
2022-08-23T16:18:00.048Z,28.61
2022-08-23T16:20:27.651Z,28.51
2022-08-23T16:22:55.149Z,28.46
2022-08-23T16:25:22.779Z,28.42
2022-08-23T16:27:50.786Z,28.36
2022-08-23T16:30:18.552Z,28.26
2022-08-23T16:32:46.157Z,28.22
2022-08-23T16:35:15.181Z,28.19
2022-08-23T16:37:42.716Z,28.13
2022-08-23T16:40:10.965Z,28.04
2022-08-23T16:42:38.498Z,27.95
2022-08-23T16:45:06.810Z,27.93
2022-08-23T16:47:39.870Z,27.90
2022-08-23T16:50:08.258Z,27.84
2022-08-23T16:52:36.304Z,27.79
2022-08-23T16:55:11.160Z,27.73
2022-08-23T16:57:39.673Z,27.66
2022-08-23T17:00:11.909Z,27.58
2022-08-23T17:02:39.801Z,27.55
2022-08-23T17:05:10.131Z,27.51
2022-08-23T17:07:38.156Z,27.43
2022-08-23T17:10:08.478Z,27.37
2022-08-23T17:12:40.205Z,27.31
2022-08-23T17:15:09.997Z,27.23
2022-08-23T17:17:38.535Z,27.21
2022-08-23T17:20:07.527Z,27.17
2022-08-23T17:22:39.044Z,27.11
2022-08-23T17:25:07.995Z,27.03
2022-08-23T17:27:35.585Z,26.97
2022-08-23T17:30:05.787Z,26.88
2022-08-23T17:32:36.872Z,26.87
2022-08-23T17:35:06.024Z,26.82
2022-08-23T17:37:33.756Z,26.78
2022-08-23T17:40:01.274Z,26.73
2022-08-23T17:42:28.824Z,26.65
2022-08-23T17:44:59.334Z,26.58
2022-08-23T17:47:26.889Z,26.53
2022-08-23T17:49:55.456Z,26.45
2022-08-23T17:52:23.459Z,26.39
2022-08-23T17:54:51.042Z,26.30
2022-08-23T17:57:18.847Z,26.23
2022-08-23T17:59:46.649Z,26.15
2022-08-23T18:02:18.045Z,26.09
2022-08-23T18:04:45.684Z,26.04
2022-08-23T18:07:13.399Z,25.95
2022-08-23T18:09:43.800Z,25.88
2022-08-23T18:12:16.807Z,25.80
2022-08-23T18:14:44.407Z,25.73
2022-08-23T18:17:11.908Z,25.69
2022-08-23T18:19:39.434Z,25.64
2022-08-23T18:22:07.050Z,25.62
2022-08-23T18:24:34.613Z,25.60
2022-08-23T18:27:21.610Z,25.56
2022-08-23T18:29:51.610Z,25.55
2022-08-23T18:32:19.844Z,25.46
2022-08-23T18:34:47.763Z,25.36
2022-08-23T18:37:17.400Z,25.26
2022-08-23T18:39:44.977Z,25.23
2022-08-23T18:42:12.595Z,25.16
2022-08-23T18:44:40.153Z,25.11
2022-08-23T18:47:08.026Z,25.10
2022-08-23T18:49:36.283Z,25.07
2022-08-23T18:52:04.294Z,24.99
2022-08-23T18:54:34.016Z,25.01
2022-08-23T18:57:02.440Z,24.97
2022-08-23T18:59:30.764Z,24.90
2022-08-23T19:01:58.533Z,24.84
2022-08-23T19:04:26.568Z,24.86
2022-08-23T19:06:55.131Z,24.83
2022-08-23T19:09:22.698Z,24.81
2022-08-23T19:11:50.508Z,24.71
2022-08-23T19:14:19.638Z,24.73
2022-08-23T19:16:48.559Z,24.68
2022-08-23T19:19:18.977Z,24.61
2022-08-23T19:21:46.670Z,24.61
2022-08-23T19:24:14.373Z,24.58
2022-08-23T19:26:47.728Z,24.54
2022-08-23T19:29:18.694Z,24.50
2022-08-23T19:31:48.337Z,24.48
2022-08-23T19:34:18.189Z,24.43
2022-08-23T19:36:51.262Z,24.39
2022-08-23T19:39:29.299Z,24.36
2022-08-23T19:41:57.100Z,24.31
2022-08-23T19:44:24.689Z,24.24
2022-08-23T19:46:52.622Z,24.14
2022-08-23T19:49:20.150Z,24.05
2022-08-23T19:51:47.697Z,24.02
2022-08-23T19:54:17.393Z,24.01
2022-08-23T19:56:47.217Z,23.98
2022-08-23T19:59:22.085Z,23.96
2022-08-23T20:01:50.436Z,23.96
2022-08-23T20:04:19.555Z,23.94
2022-08-23T20:06:48.981Z,23.92
2022-08-23T20:09:18.141Z,23.89
2022-08-23T20:11:45.639Z,23.84
2022-08-23T20:14:13.171Z,23.81
2022-08-23T20:16:42.377Z,23.77
2022-08-23T20:19:11.422Z,23.73
2022-08-23T20:21:41.014Z,23.66
2022-08-23T20:24:11.716Z,23.58
2022-08-23T20:26:48.080Z,23.49
2022-08-23T20:29:22.012Z,23.35
2022-08-23T20:31:56.981Z,23.27
2022-08-23T20:34:26.564Z,23.20
2022-08-23T20:36:56.511Z,23.11
2022-08-23T20:39:24.991Z,23.04
2022-08-23T20:41:53.613Z,22.97
2022-08-23T20:44:22.456Z,22.90
2022-08-23T20:46:54.004Z,22.86
2022-08-23T20:49:23.329Z,22.81
2022-08-23T20:51:51.447Z,22.78
2022-08-23T20:54:19.714Z,22.75
2022-08-23T20:56:51.226Z,22.72
2022-08-23T20:59:19.739Z,22.73
2022-08-23T21:01:47.999Z,22.74
2022-08-23T21:04:15.538Z,22.77
2022-08-23T21:06:47.018Z,22.74
2022-08-23T21:09:19.393Z,22.75
2022-08-23T21:11:48.804Z,22.78
2022-08-23T21:14:18.596Z,22.74
2022-08-23T21:16:47.572Z,22.71
2022-08-23T21:19:15.622Z,22.67
2022-08-23T21:21:45.008Z,22.64
2022-08-23T21:24:13.192Z,22.60
2022-08-23T21:26:41.665Z,22.59
2022-08-23T21:29:10.909Z,22.59
2022-08-23T21:31:39.874Z,22.63
2022-08-23T21:34:08.541Z,22.67
2022-08-23T21:36:36.903Z,22.73
2022-08-23T21:39:06.366Z,22.75
2022-08-23T21:41:38.159Z,22.73
2022-08-23T21:44:08.814Z,22.65
2022-08-23T21:46:36.885Z,22.55
2022-08-23T21:49:05.137Z,22.45
2022-08-23T21:51:34.873Z,22.36
2022-08-23T21:54:03.242Z,22.28
2022-08-23T21:56:31.437Z,22.18
2022-08-23T21:59:00.645Z,22.08
2022-08-23T22:01:30.588Z,22.00
2022-08-23T22:03:58.946Z,21.92
2022-08-23T22:06:27.595Z,21.86
2022-08-23T22:08:55.432Z,21.78
2022-08-23T22:11:24.268Z,21.70
2022-08-23T22:13:54.014Z,21.64
2022-08-23T22:16:22.159Z,21.54
2022-08-23T22:18:49.809Z,21.49
2022-08-23T22:21:17.403Z,21.42
2022-08-23T22:23:45.042Z,21.32
2022-08-23T22:26:14.323Z,21.31
2022-08-23T22:28:45.038Z,21.27
2022-08-23T22:31:14.728Z,21.20
2022-08-23T22:33:43.216Z,21.19
2022-08-23T22:36:19.473Z,21.17
2022-08-23T22:38:48.113Z,21.14
2022-08-23T22:41:18.847Z,21.09
2022-08-23T22:43:47.206Z,21.03
2022-08-23T22:46:15.227Z,20.94
2022-08-23T22:48:43.301Z,20.86
2022-08-23T22:51:15.307Z,20.79
2022-08-23T22:53:47.508Z,20.69
2022-08-23T22:56:20.913Z,20.60
2022-08-23T22:58:51.729Z,20.52
2022-08-23T23:01:27.884Z,20.48
2022-08-23T23:03:57.650Z,20.40
2022-08-23T23:06:25.741Z,20.33
2022-08-23T23:08:54.449Z,20.27
2022-08-23T23:11:23.727Z,20.19
2022-08-23T23:13:51.571Z,20.17
2022-08-23T23:16:23.394Z,20.12
2022-08-23T23:19:10.251Z,20.11
2022-08-23T23:21:43.766Z,20.07
2022-08-23T23:24:14.575Z,20.05
2022-08-23T23:26:42.993Z,20.01
2022-08-23T23:29:15.531Z,19.99
2022-08-23T23:31:43.863Z,19.95
2022-08-23T23:34:11.853Z,19.88
2022-08-23T23:36:40.082Z,19.83
2022-08-23T23:39:08.935Z,19.80
2022-08-23T23:41:36.483Z,19.81
2022-08-23T23:44:04.454Z,19.78
2022-08-23T23:46:32.329Z,19.76
2022-08-23T23:48:59.867Z,19.70
2022-08-23T23:51:29.821Z,19.64
2022-08-23T23:53:59.142Z,19.60
2022-08-23T23:56:30.959Z,19.57
2022-08-23T23:58:59.517Z,19.57
